sensor_id;sensor_type;location;lat;lon;timestamp;pressure;altitude;pressure_sealevel;temperature;humidity
46642;BME280;32370;41.864;-88.124;2022-12-07T00:01:11;99032.99;;;3.92;90.42
46642;BME280;32370;41.864;-88.124;2022-12-07T00:03:41;99036.31;;;4.06;90.08
46642;BME280;32370;41.864;-88.124;2022-12-07T00:06:11;99033.47;;;4.13;89.86
46642;BME280;32370;41.864;-88.124;2022-12-07T00:08:40;99035.34;;;4.21;89.58
46642;BME280;32370;41.864;-88.124;2022-12-07T00:11:09;99037.37;;;4.11;89.52
46642;BME280;32370;41.864;-88.124;2022-12-07T00:13:38;99047.86;;;3.97;89.76
46642;BME280;32370;41.864;-88.124;2022-12-07T00:16:09;99045.73;;;4.20;89.65
46642;BME280;32370;41.864;-88.124;2022-12-07T00:18:38;99026.43;;;3.98;90.10
46642;BME280;32370;41.864;-88.124;2022-12-07T00:21:09;99021.88;;;4.59;88.10
46642;BME280;32370;41.864;-88.124;2022-12-07T00:23:38;99028.94;;;4.24;88.75
46642;BME280;32370;41.864;-88.124;2022-12-07T00:26:09;99033.95;;;4.14;89.31
46642;BME280;32370;41.864;-88.124;2022-12-07T00:28:38;99030.22;;;4.43;88.87
46642;BME280;32370;41.864;-88.124;2022-12-07T00:31:08;99042.86;;;3.35;91.82
46642;BME280;32370;41.864;-88.124;2022-12-07T00:33:37;99045.95;;;2.93;95.58
46642;BME280;32370;41.864;-88.124;2022-12-07T00:36:07;99032.09;;;3.53;95.18
46642;BME280;32370;41.864;-88.124;2022-12-07T00:38:37;99015.97;;;4.15;92.87
46642;BME280;32370;41.864;-88.124;2022-12-07T00:41:07;99040.42;;;3.88;93.13
46642;BME280;32370;41.864;-88.124;2022-12-07T00:43:36;99025.34;;;3.86;93.96
46642;BME280;32370;41.864;-88.124;2022-12-07T00:46:05;99021.27;;;4.16;92.28
46642;BME280;32370;41.864;-88.124;2022-12-07T00:48:34;99056.94;;;3.98;92.51
46642;BME280;32370;41.864;-88.124;2022-12-07T00:51:03;99086.99;;;4.39;91.85
46642;BME280;32370;41.864;-88.124;2022-12-07T00:53:34;99090.17;;;4.18;90.90
46642;BME280;32370;41.864;-88.124;2022-12-07T00:56:06;99067.97;;;5.01;89.26
46642;BME280;32370;41.864;-88.124;2022-12-07T00:58:34;99060.33;;;5.05;87.96
46642;BME280;32370;41.864;-88.124;2022-12-07T01:01:03;99062.02;;;4.01;88.84
46642;BME280;32370;41.864;-88.124;2022-12-07T01:03:31;99056.52;;;3.94;89.02
46642;BME280;32370;41.864;-88.124;2022-12-07T01:06:00;99047.55;;;4.10;88.71
46642;BME280;32370;41.864;-88.124;2022-12-07T01:08:28;99048.33;;;4.46;88.01
46642;BME280;32370;41.864;-88.124;2022-12-07T01:10:59;99057.71;;;3.44;89.98
46642;BME280;32370;41.864;-88.124;2022-12-07T01:13:28;99065.62;;;2.63;93.18
46642;BME280;32370;41.864;-88.124;2022-12-07T01:15:58;99066.93;;;2.26;95.85
46642;BME280;32370;41.864;-88.124;2022-12-07T01:18:27;99071.25;;;2.15;96.93
46642;BME280;32370;41.864;-88.124;2022-12-07T01:21:00;99072.49;;;2.48;96.13
46642;BME280;32370;41.864;-88.124;2022-12-07T01:23:29;99075.06;;;2.56;94.95
46642;BME280;32370;41.864;-88.124;2022-12-07T01:25:59;99071.98;;;2.79;94.06
46642;BME280;32370;41.864;-88.124;2022-12-07T01:28:28;99073.34;;;2.95;93.34
46642;BME280;32370;41.864;-88.124;2022-12-07T01:30:58;99074.53;;;3.14;92.77
46642;BME280;32370;41.864;-88.124;2022-12-07T01:33:28;99073.12;;;3.17;92.11
46642;BME280;32370;41.864;-88.124;2022-12-07T01:36:01;99075.50;;;2.94;91.86
46642;BME280;32370;41.864;-88.124;2022-12-07T01:38:30;99075.99;;;2.83;91.49
46642;BME280;32370;41.864;-88.124;2022-12-07T01:41:00;99079.55;;;2.91;91.13
46642;BME280;32370;41.864;-88.124;2022-12-07T01:43:31;99087.80;;;2.37;93.11
46642;BME280;32370;41.864;-88.124;2022-12-07T01:46:00;99094.35;;;1.55;95.21
46642;BME280;32370;41.864;-88.124;2022-12-07T01:48:31;99087.96;;;1.85;95.41
46642;BME280;32370;41.864;-88.124;2022-12-07T01:51:03;99092.35;;;1.91;95.00
46642;BME280;32370;41.864;-88.124;2022-12-07T01:53:32;99097.17;;;2.20;94.59
46642;BME280;32370;41.864;-88.124;2022-12-07T01:56:03;99093.66;;;2.44;93.83
46642;BME280;32370;41.864;-88.124;2022-12-07T01:58:32;99091.48;;;2.62;92.61
46642;BME280;32370;41.864;-88.124;2022-12-07T02:01:00;99089.72;;;2.20;92.01
46642;BME280;32370;41.864;-88.124;2022-12-07T02:03:34;99084.07;;;2.33;91.45
46642;BME280;32370;41.864;-88.124;2022-12-07T02:06:05;99088.54;;;2.01;91.71
46642;BME280;32370;41.864;-88.124;2022-12-07T02:08:33;99090.89;;;2.36;91.35
46642;BME280;32370;41.864;-88.124;2022-12-07T02:11:08;99099.01;;;1.61;93.15
46642;BME280;32370;41.864;-88.124;2022-12-07T02:13:38;99107.48;;;0.71;96.19
46642;BME280;32370;41.864;-88.124;2022-12-07T02:16:18;99109.61;;;0.85;98.94
46642;BME280;32370;41.864;-88.124;2022-12-07T02:18:57;99111.54;;;0.85;99.22
46642;BME280;32370;41.864;-88.124;2022-12-07T02:21:32;99109.90;;;1.30;98.42
46642;BME280;32370;41.864;-88.124;2022-12-07T02:24:15;99101.31;;;1.76;95.81
46642;BME280;32370;41.864;-88.124;2022-12-07T02:27:03;99097.30;;;1.71;95.30
46642;BME280;32370;41.864;-88.124;2022-12-07T02:29:39;99098.12;;;1.59;94.85
46642;BME280;32370;41.864;-88.124;2022-12-07T02:32:12;99096.65;;;1.57;94.24
46642;BME280;32370;41.864;-88.124;2022-12-07T02:34:47;99103.13;;;1.73;93.71
46642;BME280;32370;41.864;-88.124;2022-12-07T02:37:26;99115.16;;;1.11;94.34
46642;BME280;32370;41.864;-88.124;2022-12-07T02:40:00;99115.47;;;1.46;94.62
46642;BME280;32370;41.864;-88.124;2022-12-07T02:42:36;99118.62;;;1.51;94.43
46642;BME280;32370;41.864;-88.124;2022-12-07T02:45:07;99119.82;;;1.31;94.32
46642;BME280;32370;41.864;-88.124;2022-12-07T02:47:37;99119.73;;;1.32;93.30
46642;BME280;32370;41.864;-88.124;2022-12-07T02:50:06;99117.98;;;1.66;91.88
46642;BME280;32370;41.864;-88.124;2022-12-07T02:52:35;99116.79;;;1.41;91.96
46642;BME280;32370;41.864;-88.124;2022-12-07T02:55:03;99117.95;;;1.46;92.26
46642;BME280;32370;41.864;-88.124;2022-12-07T02:57:44;99122.77;;;1.20;93.68
46642;BME280;32370;41.864;-88.124;2022-12-07T03:00:17;99127.82;;;0.28;95.73
46642;BME280;32370;41.864;-88.124;2022-12-07T03:02:53;99125.10;;;1.01;93.50
46642;BME280;32370;41.864;-88.124;2022-12-07T03:05:33;99117.80;;;0.96;92.84
46642;BME280;32370;41.864;-88.124;2022-12-07T03:08:11;99118.30;;;0.70;92.89
46642;BME280;32370;41.864;-88.124;2022-12-07T03:10:45;99123.44;;;-0.20;95.30
46642;BME280;32370;41.864;-88.124;2022-12-07T03:13:23;99131.32;;;-0.40;97.44
46642;BME280;32370;41.864;-88.124;2022-12-07T03:15:58;99132.46;;;0.20;96.72
46642;BME280;32370;41.864;-88.124;2022-12-07T03:18:32;99134.60;;;-0.01;96.23
46642;BME280;32370;41.864;-88.124;2022-12-07T03:21:04;99137.77;;;-0.52;98.15
46642;BME280;32370;41.864;-88.124;2022-12-07T03:23:34;99146.23;;;-0.73;99.00
46642;BME280;32370;41.864;-88.124;2022-12-07T03:26:05;99147.16;;;-0.28;99.43
46642;BME280;32370;41.864;-88.124;2022-12-07T03:28:39;99144.02;;;-0.36;98.81
46642;BME280;32370;41.864;-88.124;2022-12-07T03:31:14;99144.07;;;-0.18;97.61
46642;BME280;32370;41.864;-88.124;2022-12-07T03:33:48;99143.53;;;0.20;96.59
46642;BME280;32370;41.864;-88.124;2022-12-07T03:36:21;99147.96;;;0.28;95.37
46642;BME280;32370;41.864;-88.124;2022-12-07T03:38:54;99152.46;;;0.48;95.20
46642;BME280;32370;41.864;-88.124;2022-12-07T03:41:27;99158.78;;;-0.02;95.50
46642;BME280;32370;41.864;-88.124;2022-12-07T03:43:56;99165.94;;;-0.09;95.23
46642;BME280;32370;41.864;-88.124;2022-12-07T03:46:32;99171.84;;;-0.15;95.51
46642;BME280;32370;41.864;-88.124;2022-12-07T03:49:10;99174.28;;;-0.36;96.04
46642;BME280;32370;41.864;-88.124;2022-12-07T03:51:45;99177.35;;;0.12;95.15
46642;BME280;32370;41.864;-88.124;2022-12-07T03:54:17;99181.97;;;0.24;94.31
46642;BME280;32370;41.864;-88.124;2022-12-07T03:56:48;99181.66;;;0.32;93.85
46642;BME280;32370;41.864;-88.124;2022-12-07T03:59:16;99178.43;;;0.31;92.95
46642;BME280;32370;41.864;-88.124;2022-12-07T04:01:45;99180.27;;;0.45;92.05
46642;BME280;32370;41.864;-88.124;2022-12-07T04:04:18;99181.26;;;-0.19;93.08
46642;BME280;32370;41.864;-88.124;2022-12-07T04:06:46;99184.22;;;-0.08;93.17
46642;BME280;32370;41.864;-88.124;2022-12-07T04:09:14;99186.87;;;0.37;92.06
46642;BME280;32370;41.864;-88.124;2022-12-07T04:11:43;99186.58;;;-0.03;91.83
46642;BME280;32370;41.864;-88.124;2022-12-07T04:14:11;99191.30;;;-0.04;91.81
46642;BME280;32370;41.864;-88.124;2022-12-07T04:16:39;99195.31;;;-0.29;92.39
46642;BME280;32370;41.864;-88.124;2022-12-07T04:19:07;99202.36;;;-0.75;93.07
46642;BME280;32370;41.864;-88.124;2022-12-07T04:21:35;99206.54;;;-0.86;93.71
46642;BME280;32370;41.864;-88.124;2022-12-07T04:24:03;99209.60;;;-0.29;93.21
46642;BME280;32370;41.864;-88.124;2022-12-07T04:26:31;99210.95;;;-0.44;93.26
46642;BME280;32370;41.864;-88.124;2022-12-07T04:28:59;99216.07;;;-0.64;93.36
46642;BME280;32370;41.864;-88.124;2022-12-07T04:31:27;99219.06;;;-0.39;93.05
46642;BME280;32370;41.864;-88.124;2022-12-07T04:33:55;99220.20;;;-0.45;92.65
46642;BME280;32370;41.864;-88.124;2022-12-07T04:36:23;99216.92;;;-0.23;92.15
46642;BME280;32370;41.864;-88.124;2022-12-07T04:38:53;99218.83;;;0.13;91.19
46642;BME280;32370;41.864;-88.124;2022-12-07T04:41:22;99214.70;;;-0.03;90.29
46642;BME280;32370;41.864;-88.124;2022-12-07T04:43:50;99220.66;;;0.02;90.20
46642;BME280;32370;41.864;-88.124;2022-12-07T04:46:18;99225.90;;;0.27;89.77
46642;BME280;32370;41.864;-88.124;2022-12-07T04:48:46;99225.87;;;0.18;89.72
46642;BME280;32370;41.864;-88.124;2022-12-07T04:51:16;99225.44;;;-0.67;90.44
46642;BME280;32370;41.864;-88.124;2022-12-07T04:53:46;99221.16;;;-0.64;91.11
46642;BME280;32370;41.864;-88.124;2022-12-07T04:56:14;99226.14;;;-1.16;91.70
46642;BME280;32370;41.864;-88.124;2022-12-07T04:58:43;99227.95;;;-0.86;92.63
46642;BME280;32370;41.864;-88.124;2022-12-07T05:01:12;99225.68;;;-0.95;92.23
46642;BME280;32370;41.864;-88.124;2022-12-07T05:03:40;99226.31;;;-0.42;91.93
46642;BME280;32370;41.864;-88.124;2022-12-07T05:06:08;99232.62;;;-0.25;91.33
46642;BME280;32370;41.864;-88.124;2022-12-07T05:08:38;99232.79;;;-0.71;91.39
46642;BME280;32370;41.864;-88.124;2022-12-07T05:11:07;99233.95;;;-0.17;90.63
46642;BME280;32370;41.864;-88.124;2022-12-07T05:13:36;99238.99;;;-0.17;90.12
46642;BME280;32370;41.864;-88.124;2022-12-07T05:16:04;99242.02;;;-0.25;89.68
46642;BME280;32370;41.864;-88.124;2022-12-07T05:18:33;99247.32;;;-0.65;90.37
46642;BME280;32370;41.864;-88.124;2022-12-07T05:21:01;99253.20;;;-1.20;90.84
46642;BME280;32370;41.864;-88.124;2022-12-07T05:23:29;99250.96;;;-0.70;90.78
46642;BME280;32370;41.864;-88.124;2022-12-07T05:25:57;99256.68;;;-0.99;91.01
46642;BME280;32370;41.864;-88.124;2022-12-07T05:28:25;99266.02;;;-1.38;91.59
46642;BME280;32370;41.864;-88.124;2022-12-07T05:30:53;99264.37;;;-0.94;91.33
46642;BME280;32370;41.864;-88.124;2022-12-07T05:33:21;99268.83;;;-1.11;91.09
46642;BME280;32370;41.864;-88.124;2022-12-07T05:35:49;99273.29;;;-0.97;90.90
46642;BME280;32370;41.864;-88.124;2022-12-07T05:38:17;99269.28;;;-1.04;90.95
46642;BME280;32370;41.864;-88.124;2022-12-07T05:40:45;99269.90;;;-1.15;90.91
46642;BME280;32370;41.864;-88.124;2022-12-07T05:43:13;99269.86;;;-1.38;91.38
46642;BME280;32370;41.864;-88.124;2022-12-07T05:45:41;99271.43;;;-1.76;92.48
46642;BME280;32370;41.864;-88.124;2022-12-07T05:48:09;99270.38;;;-1.47;92.17
46642;BME280;32370;41.864;-88.124;2022-12-07T05:50:37;99266.21;;;-1.42;91.79
46642;BME280;32370;41.864;-88.124;2022-12-07T05:53:05;99270.74;;;-1.79;92.26
46642;BME280;32370;41.864;-88.124;2022-12-07T05:55:33;99269.21;;;-1.82;92.64
46642;BME280;32370;41.864;-88.124;2022-12-07T05:58:01;99272.28;;;-1.49;92.09
46642;BME280;32370;41.864;-88.124;2022-12-07T06:00:29;99273.84;;;-1.29;91.15
46642;BME280;32370;41.864;-88.124;2022-12-07T06:02:57;99269.60;;;-1.53;91.34
46642;BME280;32370;41.864;-88.124;2022-12-07T06:05:25;99268.24;;;-1.55;91.48
46642;BME280;32370;41.864;-88.124;2022-12-07T06:07:53;99266.52;;;-1.89;92.53
46642;BME280;32370;41.864;-88.124;2022-12-07T06:10:21;99263.18;;;-1.52;92.56
46642;BME280;32370;41.864;-88.124;2022-12-07T06:12:49;99266.50;;;-1.94;92.54
46642;BME280;32370;41.864;-88.124;2022-12-07T06:15:17;99263.44;;;-1.91;92.64
46642;BME280;32370;41.864;-88.124;2022-12-07T06:17:45;99260.77;;;-1.67;92.29
46642;BME280;32370;41.864;-88.124;2022-12-07T06:20:13;99264.08;;;-1.80;92.65
46642;BME280;32370;41.864;-88.124;2022-12-07T06:22:41;99265.52;;;-1.37;91.86
46642;BME280;32370;41.864;-88.124;2022-12-07T06:25:09;99263.19;;;-0.85;90.31
46642;BME280;32370;41.864;-88.124;2022-12-07T06:27:37;99265.64;;;-0.69;90.17
46642;BME280;32370;41.864;-88.124;2022-12-07T06:30:06;99265.43;;;-0.77;90.93
46642;BME280;32370;41.864;-88.124;2022-12-07T06:32:37;99258.61;;;-0.59;90.60
46642;BME280;32370;41.864;-88.124;2022-12-07T06:35:05;99263.73;;;-0.13;90.53
46642;BME280;32370;41.864;-88.124;2022-12-07T06:37:34;99267.70;;;-0.72;91.50
46642;BME280;32370;41.864;-88.124;2022-12-07T06:40:02;99267.48;;;-0.63;91.92
46642;BME280;32370;41.864;-88.124;2022-12-07T06:42:30;99260.84;;;-0.14;91.46
46642;BME280;32370;41.864;-88.124;2022-12-07T06:44:58;99264.32;;;-0.52;91.78
46642;BME280;32370;41.864;-88.124;2022-12-07T06:47:26;99268.42;;;-0.19;91.77
46642;BME280;32370;41.864;-88.124;2022-12-07T06:49:54;99274.04;;;-0.29;92.01
46642;BME280;32370;41.864;-88.124;2022-12-07T06:52:22;99281.28;;;-0.53;92.37
46642;BME280;32370;41.864;-88.124;2022-12-07T06:54:50;99277.87;;;-0.13;92.34
46642;BME280;32370;41.864;-88.124;2022-12-07T06:57:18;99274.29;;;-0.06;92.28
46642;BME280;32370;41.864;-88.124;2022-12-07T06:59:46;99269.78;;;-0.05;92.57
46642;BME280;32370;41.864;-88.124;2022-12-07T07:02:14;99268.42;;;-0.26;92.69
46642;BME280;32370;41.864;-88.124;2022-12-07T07:04:42;99273.06;;;-0.81;93.73
46642;BME280;32370;41.864;-88.124;2022-12-07T07:07:10;99270.55;;;-0.72;96.00
46642;BME280;32370;41.864;-88.124;2022-12-07T07:09:38;99271.15;;;-0.57;100.00
46642;BME280;32370;41.864;-88.124;2022-12-07T07:12:06;99270.75;;;-0.03;99.77
46642;BME280;32370;41.864;-88.124;2022-12-07T07:14:34;99283.90;;;0.41;97.84
46642;BME280;32370;41.864;-88.124;2022-12-07T07:17:02;99284.25;;;0.77;96.35
46642;BME280;32370;41.864;-88.124;2022-12-07T07:19:30;99285.10;;;0.91;94.98
46642;BME280;32370;41.864;-88.124;2022-12-07T07:21:58;99287.69;;;1.33;94.37
46642;BME280;32370;41.864;-88.124;2022-12-07T07:24:26;99289.05;;;1.19;94.10
46642;BME280;32370;41.864;-88.124;2022-12-07T07:26:54;99292.43;;;1.31;93.98
46642;BME280;32370;41.864;-88.124;2022-12-07T07:29:22;99293.72;;;1.25;95.64
46642;BME280;32370;41.864;-88.124;2022-12-07T07:31:50;99295.21;;;0.77;100.00
46642;BME280;32370;41.864;-88.124;2022-12-07T07:34:18;99294.60;;;0.58;100.00
46642;BME280;32370;41.864;-88.124;2022-12-07T07:36:47;99294.75;;;0.39;100.00
46642;BME280;32370;41.864;-88.124;2022-12-07T07:39:15;99304.00;;;0.27;100.00
46642;BME280;32370;41.864;-88.124;2022-12-07T07:41:43;99313.53;;;0.57;100.00
46642;BME280;32370;41.864;-88.124;2022-12-07T07:44:11;99320.21;;;0.79;100.00
46642;BME280;32370;41.864;-88.124;2022-12-07T07:46:39;99326.04;;;0.71;100.00
46642;BME280;32370;41.864;-88.124;2022-12-07T07:49:06;99328.34;;;0.97;100.00
46642;BME280;32370;41.864;-88.124;2022-12-07T07:51:34;99329.30;;;0.57;100.00
46642;BME280;32370;41.864;-88.124;2022-12-07T07:54:02;99328.78;;;0.52;100.00
46642;BME280;32370;41.864;-88.124;2022-12-07T07:56:30;99331.56;;;0.73;100.00
46642;BME280;32370;41.864;-88.124;2022-12-07T07:58:58;99333.86;;;0.77;100.00
46642;BME280;32370;41.864;-88.124;2022-12-07T08:01:26;99329.51;;;1.12;100.00
46642;BME280;32370;41.864;-88.124;2022-12-07T08:03:54;99328.53;;;1.08;100.00
46642;BME280;32370;41.864;-88.124;2022-12-07T08:06:22;99333.36;;;1.54;100.00
46642;BME280;32370;41.864;-88.124;2022-12-07T08:08:50;99337.13;;;1.19;100.00
46642;BME280;32370;41.864;-88.124;2022-12-07T08:11:18;99336.65;;;0.95;100.00
46642;BME280;32370;41.864;-88.124;2022-12-07T08:13:46;99346.25;;;0.68;100.00
46642;BME280;32370;41.864;-88.124;2022-12-07T08:16:14;99350.26;;;0.59;100.00
46642;BME280;32370;41.864;-88.124;2022-12-07T08:18:43;99357.48;;;0.67;100.00
46642;BME280;32370;41.864;-88.124;2022-12-07T08:21:13;99365.47;;;0.43;100.00
46642;BME280;32370;41.864;-88.124;2022-12-07T08:23:42;99370.22;;;0.67;100.00
46642;BME280;32370;41.864;-88.124;2022-12-07T08:26:13;99366.80;;;0.73;100.00
46642;BME280;32370;41.864;-88.124;2022-12-07T08:28:42;99363.29;;;1.68;100.00
46642;BME280;32370;41.864;-88.124;2022-12-07T08:31:12;99367.44;;;1.77;100.00
46642;BME280;32370;41.864;-88.124;2022-12-07T08:33:41;99376.10;;;1.95;100.00
46642;BME280;32370;41.864;-88.124;2022-12-07T08:36:14;99382.47;;;1.56;100.00
46642;BME280;32370;41.864;-88.124;2022-12-07T08:38:42;99386.21;;;1.53;100.00
46642;BME280;32370;41.864;-88.124;2022-12-07T08:41:10;99387.18;;;1.59;100.00
46642;BME280;32370;41.864;-88.124;2022-12-07T08:43:38;99388.52;;;1.72;100.00
46642;BME280;32370;41.864;-88.124;2022-12-07T08:46:09;99392.91;;;1.36;100.00
46642;BME280;32370;41.864;-88.124;2022-12-07T08:48:43;99396.58;;;0.69;100.00
46642;BME280;32370;41.864;-88.124;2022-12-07T08:51:12;99392.99;;;0.44;100.00
46642;BME280;32370;41.864;-88.124;2022-12-07T08:53:41;99393.92;;;0.30;100.00
46642;BME280;32370;41.864;-88.124;2022-12-07T08:56:10;99389.63;;;0.37;100.00
46642;BME280;32370;41.864;-88.124;2022-12-07T08:58:39;99386.74;;;0.51;100.00
46642;BME280;32370;41.864;-88.124;2022-12-07T09:01:07;99385.86;;;0.52;100.00
46642;BME280;32370;41.864;-88.124;2022-12-07T09:03:34;99392.96;;;0.79;100.00
46642;BME280;32370;41.864;-88.124;2022-12-07T09:06:02;99401.44;;;1.09;100.00
46642;BME280;32370;41.864;-88.124;2022-12-07T09:08:34;99404.14;;;0.51;100.00
46642;BME280;32370;41.864;-88.124;2022-12-07T09:11:03;99396.74;;;0.65;100.00
46642;BME280;32370;41.864;-88.124;2022-12-07T09:13:30;99393.20;;;0.61;100.00
46642;BME280;32370;41.864;-88.124;2022-12-07T09:15:58;99392.05;;;0.73;100.00
46642;BME280;32370;41.864;-88.124;2022-12-07T09:18:26;99386.86;;;0.99;100.00
46642;BME280;32370;41.864;-88.124;2022-12-07T09:20:55;99386.99;;;1.25;100.00
46642;BME280;32370;41.864;-88.124;2022-12-07T09:23:23;99387.28;;;0.72;100.00
46642;BME280;32370;41.864;-88.124;2022-12-07T09:25:51;99383.39;;;0.96;100.00
46642;BME280;32370;41.864;-88.124;2022-12-07T09:28:19;99374.98;;;1.30;100.00
46642;BME280;32370;41.864;-88.124;2022-12-07T09:30:48;99376.23;;;0.79;100.00
46642;BME280;32370;41.864;-88.124;2022-12-07T09:33:16;99378.97;;;1.13;100.00
46642;BME280;32370;41.864;-88.124;2022-12-07T09:35:46;99384.17;;;0.76;100.00
46642;BME280;32370;41.864;-88.124;2022-12-07T09:38:15;99381.18;;;0.68;100.00
46642;BME280;32370;41.864;-88.124;2022-12-07T09:40:43;99375.63;;;0.73;100.00
46642;BME280;32370;41.864;-88.124;2022-12-07T09:43:13;99369.39;;;0.73;100.00
46642;BME280;32370;41.864;-88.124;2022-12-07T09:45:43;99370.17;;;0.98;100.00
46642;BME280;32370;41.864;-88.124;2022-12-07T09:48:18;99376.67;;;1.45;100.00
46642;BME280;32370;41.864;-88.124;2022-12-07T09:50:47;99377.71;;;1.67;100.00
46642;BME280;32370;41.864;-88.124;2022-12-07T09:53:20;99385.12;;;1.64;100.00
46642;BME280;32370;41.864;-88.124;2022-12-07T09:55:50;99384.16;;;1.15;100.00
46642;BME280;32370;41.864;-88.124;2022-12-07T09:58:21;99385.89;;;0.66;100.00
46642;BME280;32370;41.864;-88.124;2022-12-07T10:00:54;99395.35;;;0.80;100.00
46642;BME280;32370;41.864;-88.124;2022-12-07T10:03:23;99393.05;;;1.05;100.00
46642;BME280;32370;41.864;-88.124;2022-12-07T10:05:52;99393.46;;;1.14;100.00
46642;BME280;32370;41.864;-88.124;2022-12-07T10:08:20;99395.22;;;1.42;100.00
46642;BME280;32370;41.864;-88.124;2022-12-07T10:10:54;99389.83;;;1.54;100.00
46642;BME280;32370;41.864;-88.124;2022-12-07T10:13:34;99391.07;;;1.60;100.00
46642;BME280;32370;41.864;-88.124;2022-12-07T10:16:03;99395.60;;;2.24;100.00
46642;BME280;32370;41.864;-88.124;2022-12-07T10:18:33;99397.36;;;1.46;100.00
46642;BME280;32370;41.864;-88.124;2022-12-07T10:21:05;99400.63;;;1.51;100.00
46642;BME280;32370;41.864;-88.124;2022-12-07T10:23:33;99406.99;;;1.63;100.00
46642;BME280;32370;41.864;-88.124;2022-12-07T10:26:20;99411.46;;;1.24;100.00
46642;BME280;32370;41.864;-88.124;2022-12-07T10:28:48;99419.96;;;0.66;100.00
46642;BME280;32370;41.864;-88.124;2022-12-07T10:31:18;99424.89;;;0.15;100.00
46642;BME280;32370;41.864;-88.124;2022-12-07T10:33:51;99424.26;;;0.71;100.00
46642;BME280;32370;41.864;-88.124;2022-12-07T10:36:22;99430.65;;;0.90;100.00
46642;BME280;32370;41.864;-88.124;2022-12-07T10:38:53;99440.79;;;0.76;100.00
46642;BME280;32370;41.864;-88.124;2022-12-07T10:41:21;99446.93;;;0.20;100.00
46642;BME280;32370;41.864;-88.124;2022-12-07T10:43:51;99446.16;;;0.50;100.00
46642;BME280;32370;41.864;-88.124;2022-12-07T10:47:08;99450.95;;;0.85;100.00
46642;BME280;32370;41.864;-88.124;2022-12-07T10:50:08;99453.92;;;0.47;100.00
46642;BME280;32370;41.864;-88.124;2022-12-07T10:52:51;99461.08;;;0.33;100.00
46642;BME280;32370;41.864;-88.124;2022-12-07T10:55:31;99469.58;;;0.32;100.00
46642;BME280;32370;41.864;-88.124;2022-12-07T10:58:18;99470.27;;;0.05;100.00
46642;BME280;32370;41.864;-88.124;2022-12-07T11:01:00;99470.21;;;0.02;100.00
46642;BME280;32370;41.864;-88.124;2022-12-07T11:03:39;99473.22;;;0.01;100.00
46642;BME280;32370;41.864;-88.124;2022-12-07T11:06:21;99474.59;;;0.16;100.00
46642;BME280;32370;41.864;-88.124;2022-12-07T11:09:02;99472.30;;;0.31;100.00
46642;BME280;32370;41.864;-88.124;2022-12-07T11:11:34;99470.63;;;0.17;100.00
46642;BME280;32370;41.864;-88.124;2022-12-07T11:14:15;99472.24;;;0.21;100.00
46642;BME280;32370;41.864;-88.124;2022-12-07T11:16:55;99473.62;;;0.20;100.00
46642;BME280;32370;41.864;-88.124;2022-12-07T11:19:39;99474.66;;;0.17;100.00
46642;BME280;32370;41.864;-88.124;2022-12-07T11:22:16;99473.88;;;0.11;100.00
46642;BME280;32370;41.864;-88.124;2022-12-07T11:24:52;99476.89;;;-0.03;100.00
46642;BME280;32370;41.864;-88.124;2022-12-07T11:27:30;99468.46;;;0.11;100.00
46642;BME280;32370;41.864;-88.124;2022-12-07T11:30:13;99463.60;;;0.54;100.00
46642;BME280;32370;41.864;-88.124;2022-12-07T11:32:57;99466.22;;;-0.06;100.00
46642;BME280;32370;41.864;-88.124;2022-12-07T11:35:36;99468.71;;;0.18;100.00
46642;BME280;32370;41.864;-88.124;2022-12-07T11:38:14;99465.42;;;0.40;100.00
46642;BME280;32370;41.864;-88.124;2022-12-07T11:40:46;99474.02;;;0.99;100.00
46642;BME280;32370;41.864;-88.124;2022-12-07T11:43:21;99479.80;;;1.49;100.00
46642;BME280;32370;41.864;-88.124;2022-12-07T11:45:56;99495.90;;;1.71;100.00
46642;BME280;32370;41.864;-88.124;2022-12-07T11:48:33;99501.27;;;1.04;100.00
46642;BME280;32370;41.864;-88.124;2022-12-07T11:51:03;99509.97;;;0.36;100.00
46642;BME280;32370;41.864;-88.124;2022-12-07T11:53:37;99514.06;;;0.10;100.00
46642;BME280;32370;41.864;-88.124;2022-12-07T11:56:11;99523.67;;;0.36;100.00
46642;BME280;32370;41.864;-88.124;2022-12-07T11:58:49;99528.17;;;0.12;100.00
46642;BME280;32370;41.864;-88.124;2022-12-07T12:01:34;99515.76;;;0.78;100.00
46642;BME280;32370;41.864;-88.124;2022-12-07T12:04:16;99507.47;;;0.97;100.00
46642;BME280;32370;41.864;-88.124;2022-12-07T12:06:49;99507.30;;;1.14;100.00
46642;BME280;32370;41.864;-88.124;2022-12-07T12:09:19;99509.73;;;1.36;100.00
46642;BME280;32370;41.864;-88.124;2022-12-07T12:12:05;99523.20;;;0.81;100.00
46642;BME280;32370;41.864;-88.124;2022-12-07T12:14:48;99528.63;;;0.22;100.00
46642;BME280;32370;41.864;-88.124;2022-12-07T12:17:41;99523.06;;;0.37;100.00
46642;BME280;32370;41.864;-88.124;2022-12-07T12:20:20;99532.64;;;0.87;100.00
46642;BME280;32370;41.864;-88.124;2022-12-07T12:22:53;99537.04;;;0.50;100.00
46642;BME280;32370;41.864;-88.124;2022-12-07T12:25:28;99529.95;;;0.97;100.00
46642;BME280;32370;41.864;-88.124;2022-12-07T12:27:59;99532.43;;;1.18;100.00
46642;BME280;32370;41.864;-88.124;2022-12-07T12:30:39;99541.10;;;1.70;100.00
46642;BME280;32370;41.864;-88.124;2022-12-07T12:33:14;99549.10;;;1.23;100.00
46642;BME280;32370;41.864;-88.124;2022-12-07T12:35:44;99555.08;;;1.57;100.00
46642;BME280;32370;41.864;-88.124;2022-12-07T12:38:31;99554.18;;;1.37;100.00
46642;BME280;32370;41.864;-88.124;2022-12-07T12:41:01;99565.80;;;1.62;100.00
46642;BME280;32370;41.864;-88.124;2022-12-07T12:44:02;99572.75;;;2.57;100.00
46642;BME280;32370;41.864;-88.124;2022-12-07T12:47:02;99580.23;;;2.95;100.00
46642;BME280;32370;41.864;-88.124;2022-12-07T12:49:36;99576.80;;;2.17;100.00
46642;BME280;32370;41.864;-88.124;2022-12-07T12:53:11;99568.70;;;1.83;100.00
46642;BME280;32370;41.864;-88.124;2022-12-07T12:55:57;99564.21;;;2.14;100.00
46642;BME280;32370;41.864;-88.124;2022-12-07T12:58:35;99565.07;;;2.07;100.00
46642;BME280;32370;41.864;-88.124;2022-12-07T13:01:43;99563.37;;;2.79;100.00
46642;BME280;32370;41.864;-88.124;2022-12-07T13:04:21;99568.57;;;2.06;100.00
46642;BME280;32370;41.864;-88.124;2022-12-07T13:06:50;99573.85;;;1.70;100.00